sensor_id;sensor_type;location;lat;lon;timestamp;temperature;humidity
41262;DHT22;29629;52.532;13.352;2024-02-21T00:01:29;8.50;99.90
41262;DHT22;29629;52.532;13.352;2024-02-21T00:03:56;8.60;99.90
41262;DHT22;29629;52.532;13.352;2024-02-21T00:06:22;8.60;99.90
41262;DHT22;29629;52.532;13.352;2024-02-21T00:08:49;8.60;99.90
41262;DHT22;29629;52.532;13.352;2024-02-21T00:11:16;8.60;99.90
41262;DHT22;29629;52.532;13.352;2024-02-21T00:13:43;8.50;99.90
41262;DHT22;29629;52.532;13.352;2024-02-21T00:16:10;8.50;99.90
41262;DHT22;29629;52.532;13.352;2024-02-21T00:18:38;8.50;99.90
41262;DHT22;29629;52.532;13.352;2024-02-21T00:21:05;8.50;99.90
41262;DHT22;29629;52.532;13.352;2024-02-21T00:23:32;8.40;99.90
41262;DHT22;29629;52.532;13.352;2024-02-21T00:25:59;8.40;99.90
41262;DHT22;29629;52.532;13.352;2024-02-21T00:28:26;8.40;99.90
41262;DHT22;29629;52.532;13.352;2024-02-21T00:30:53;8.30;99.90
41262;DHT22;29629;52.532;13.352;2024-02-21T00:33:20;8.40;99.90
41262;DHT22;29629;52.532;13.352;2024-02-21T00:35:48;8.40;99.90
41262;DHT22;29629;52.532;13.352;2024-02-21T00:38:15;8.30;99.90
41262;DHT22;29629;52.532;13.352;2024-02-21T00:40:42;8.30;99.90
41262;DHT22;29629;52.532;13.352;2024-02-21T00:43:09;8.30;99.90
41262;DHT22;29629;52.532;13.352;2024-02-21T00:45:37;8.30;99.90
41262;DHT22;29629;52.532;13.352;2024-02-21T00:48:04;8.30;99.90
41262;DHT22;29629;52.532;13.352;2024-02-21T00:50:31;8.40;99.90
41262;DHT22;29629;52.532;13.352;2024-02-21T00:53:00;8.30;99.90
41262;DHT22;29629;52.532;13.352;2024-02-21T00:55:27;8.30;99.90
41262;DHT22;29629;52.532;13.352;2024-02-21T00:57:54;8.30;99.90
41262;DHT22;29629;52.532;13.352;2024-02-21T01:00:21;8.40;99.90
41262;DHT22;29629;52.532;13.352;2024-02-21T01:02:48;8.30;99.90
41262;DHT22;29629;52.532;13.352;2024-02-21T01:05:15;8.30;99.90
41262;DHT22;29629;52.532;13.352;2024-02-21T01:07:42;8.30;99.90
41262;DHT22;29629;52.532;13.352;2024-02-21T01:10:10;8.30;99.90
41262;DHT22;29629;52.532;13.352;2024-02-21T01:12:37;8.30;99.90
41262;DHT22;29629;52.532;13.352;2024-02-21T01:15:05;8.30;99.90
41262;DHT22;29629;52.532;13.352;2024-02-21T01:17:32;8.30;99.90
41262;DHT22;29629;52.532;13.352;2024-02-21T01:19:59;8.30;99.90
41262;DHT22;29629;52.532;13.352;2024-02-21T01:22:26;8.30;99.90
41262;DHT22;29629;52.532;13.352;2024-02-21T01:24:52;8.40;99.90
41262;DHT22;29629;52.532;13.352;2024-02-21T01:27:21;8.40;99.90
41262;DHT22;29629;52.532;13.352;2024-02-21T01:29:48;8.40;99.90
41262;DHT22;29629;52.532;13.352;2024-02-21T01:32:15;8.40;99.90
41262;DHT22;29629;52.532;13.352;2024-02-21T01:34:42;8.50;99.90
41262;DHT22;29629;52.532;13.352;2024-02-21T01:37:09;8.50;99.90
41262;DHT22;29629;52.532;13.352;2024-02-21T01:39:36;8.50;99.90
41262;DHT22;29629;52.532;13.352;2024-02-21T01:42:04;8.50;99.90
41262;DHT22;29629;52.532;13.352;2024-02-21T01:44:32;8.40;99.90
41262;DHT22;29629;52.532;13.352;2024-02-21T01:46:59;8.50;99.90
41262;DHT22;29629;52.532;13.352;2024-02-21T01:49:26;8.60;99.90
41262;DHT22;29629;52.532;13.352;2024-02-21T01:51:53;8.50;99.90
41262;DHT22;29629;52.532;13.352;2024-02-21T01:54:21;8.60;99.90
41262;DHT22;29629;52.532;13.352;2024-02-21T01:56:48;8.60;99.90
41262;DHT22;29629;52.532;13.352;2024-02-21T01:59:16;8.60;99.90
41262;DHT22;29629;52.532;13.352;2024-02-21T02:01:46;8.60;99.90
41262;DHT22;29629;52.532;13.352;2024-02-21T02:04:14;8.60;99.90
41262;DHT22;29629;52.532;13.352;2024-02-21T02:06:41;8.60;99.90
41262;DHT22;29629;52.532;13.352;2024-02-21T02:09:08;8.60;99.90
41262;DHT22;29629;52.532;13.352;2024-02-21T02:11:35;8.60;99.90
41262;DHT22;29629;52.532;13.352;2024-02-21T02:14:02;8.60;99.90
41262;DHT22;29629;52.532;13.352;2024-02-21T02:16:29;8.60;99.90
41262;DHT22;29629;52.532;13.352;2024-02-21T02:18:58;8.60;99.90
41262;DHT22;29629;52.532;13.352;2024-02-21T02:21:29;8.60;99.90
41262;DHT22;29629;52.532;13.352;2024-02-21T02:23:59;8.60;99.90
41262;DHT22;29629;52.532;13.352;2024-02-21T02:26:26;8.60;99.90
41262;DHT22;29629;52.532;13.352;2024-02-21T02:28:53;8.60;99.90
41262;DHT22;29629;52.532;13.352;2024-02-21T02:31:20;8.60;99.90
41262;DHT22;29629;52.532;13.352;2024-02-21T02:33:47;8.50;99.90
41262;DHT22;29629;52.532;13.352;2024-02-21T02:36:14;8.50;99.90
41262;DHT22;29629;52.532;13.352;2024-02-21T02:38:41;8.50;99.90
41262;DHT22;29629;52.532;13.352;2024-02-21T02:41:09;8.40;99.90
41262;DHT22;29629;52.532;13.352;2024-02-21T02:43:36;8.40;99.90
41262;DHT22;29629;52.532;13.352;2024-02-21T02:46:03;8.40;99.90
41262;DHT22;29629;52.532;13.352;2024-02-21T02:48:30;8.30;99.90
41262;DHT22;29629;52.532;13.352;2024-02-21T02:50:57;8.40;99.90
41262;DHT22;29629;52.532;13.352;2024-02-21T02:53:24;8.30;99.90
41262;DHT22;29629;52.532;13.352;2024-02-21T02:55:51;8.30;99.90
41262;DHT22;29629;52.532;13.352;2024-02-21T02:58:19;8.20;99.90
41262;DHT22;29629;52.532;13.352;2024-02-21T03:00:46;8.20;99.90
41262;DHT22;29629;52.532;13.352;2024-02-21T03:03:13;8.30;99.90
41262;DHT22;29629;52.532;13.352;2024-02-21T03:05:40;8.20;99.90
41262;DHT22;29629;52.532;13.352;2024-02-21T03:08:07;8.20;99.90
41262;DHT22;29629;52.532;13.352;2024-02-21T03:10:34;8.10;99.90
41262;DHT22;29629;52.532;13.352;2024-02-21T03:13:01;8.00;99.90
41262;DHT22;29629;52.532;13.352;2024-02-21T03:15:30;8.10;99.90
41262;DHT22;29629;52.532;13.352;2024-02-21T03:17:57;8.10;99.90
41262;DHT22;29629;52.532;13.352;2024-02-21T03:20:24;7.90;99.90
41262;DHT22;29629;52.532;13.352;2024-02-21T03:22:51;7.90;99.90
41262;DHT22;29629;52.532;13.352;2024-02-21T03:25:18;8.00;99.90
41262;DHT22;29629;52.532;13.352;2024-02-21T03:27:45;8.00;99.90
41262;DHT22;29629;52.532;13.352;2024-02-21T03:30:13;8.00;99.90
41262;DHT22;29629;52.532;13.352;2024-02-21T03:32:41;8.10;99.90
41262;DHT22;29629;52.532;13.352;2024-02-21T03:35:08;8.00;99.90
41262;DHT22;29629;52.532;13.352;2024-02-21T03:37:35;8.00;99.90
41262;DHT22;29629;52.532;13.352;2024-02-21T03:40:03;7.90;99.90
41262;DHT22;29629;52.532;13.352;2024-02-21T03:42:33;7.90;99.90
41262;DHT22;29629;52.532;13.352;2024-02-21T03:45:00;8.00;99.90
41262;DHT22;29629;52.532;13.352;2024-02-21T03:47:27;7.90;99.90
41262;DHT22;29629;52.532;13.352;2024-02-21T03:49:55;7.90;99.90
41262;DHT22;29629;52.532;13.352;2024-02-21T03:52:23;7.80;99.90
41262;DHT22;29629;52.532;13.352;2024-02-21T03:54:50;7.80;99.90
41262;DHT22;29629;52.532;13.352;2024-02-21T03:57:17;7.90;99.90
41262;DHT22;29629;52.532;13.352;2024-02-21T03:59:45;7.80;99.90
41262;DHT22;29629;52.532;13.352;2024-02-21T04:02:12;7.80;99.90
41262;DHT22;29629;52.532;13.352;2024-02-21T04:04:43;7.80;99.90
41262;DHT22;29629;52.532;13.352;2024-02-21T04:07:13;7.80;99.90
41262;DHT22;29629;52.532;13.352;2024-02-21T04:09:40;7.90;99.90
41262;DHT22;29629;52.532;13.352;2024-02-21T04:12:08;7.90;99.90
41262;DHT22;29629;52.532;13.352;2024-02-21T04:14:35;7.80;99.90
41262;DHT22;29629;52.532;13.352;2024-02-21T04:17:02;7.80;99.90
41262;DHT22;29629;52.532;13.352;2024-02-21T04:19:30;7.80;99.90
41262;DHT22;29629;52.532;13.352;2024-02-21T04:21:58;7.80;99.90
41262;DHT22;29629;52.532;13.352;2024-02-21T04:24:26;7.80;99.90
41262;DHT22;29629;52.532;13.352;2024-02-21T04:26:53;7.80;99.90
41262;DHT22;29629;52.532;13.352;2024-02-21T04:29:20;7.90;99.90
41262;DHT22;29629;52.532;13.352;2024-02-21T04:31:47;7.90;99.90
41262;DHT22;29629;52.532;13.352;2024-02-21T04:34:14;7.80;99.90
41262;DHT22;29629;52.532;13.352;2024-02-21T04:36:40;7.70;99.90
41262;DHT22;29629;52.532;13.352;2024-02-21T04:39:09;7.80;99.90
41262;DHT22;29629;52.532;13.352;2024-02-21T04:41:38;7.80;99.90
41262;DHT22;29629;52.532;13.352;2024-02-21T04:44:05;7.80;99.90
41262;DHT22;29629;52.532;13.352;2024-02-21T04:46:32;7.70;99.90
41262;DHT22;29629;52.532;13.352;2024-02-21T04:48:59;7.70;99.90
41262;DHT22;29629;52.532;13.352;2024-02-21T04:51:25;7.70;99.90
41262;DHT22;29629;52.532;13.352;2024-02-21T04:53:52;7.80;99.90
41262;DHT22;29629;52.532;13.352;2024-02-21T04:56:19;7.80;99.90
41262;DHT22;29629;52.532;13.352;2024-02-21T04:58:48;7.70;99.90
41262;DHT22;29629;52.532;13.352;2024-02-21T05:01:15;7.80;99.90
41262;DHT22;29629;52.532;13.352;2024-02-21T05:03:41;7.70;99.90
41262;DHT22;29629;52.532;13.352;2024-02-21T05:06:08;7.70;99.90
41262;DHT22;29629;52.532;13.352;2024-02-21T05:08:35;7.60;99.90
41262;DHT22;29629;52.532;13.352;2024-02-21T05:11:02;7.70;99.90
41262;DHT22;29629;52.532;13.352;2024-02-21T05:13:29;7.70;99.90
41262;DHT22;29629;52.532;13.352;2024-02-21T05:15:57;7.70;99.90
41262;DHT22;29629;52.532;13.352;2024-02-21T05:18:27;7.80;99.90
41262;DHT22;29629;52.532;13.352;2024-02-21T05:20:54;7.70;99.90
41262;DHT22;29629;52.532;13.352;2024-02-21T05:23:21;7.70;99.90
41262;DHT22;29629;52.532;13.352;2024-02-21T05:25:47;7.80;99.90
41262;DHT22;29629;52.532;13.352;2024-02-21T05:28:14;7.80;99.90
41262;DHT22;29629;52.532;13.352;2024-02-21T05:30:41;7.60;99.90
41262;DHT22;29629;52.532;13.352;2024-02-21T05:33:10;7.70;99.90
41262;DHT22;29629;52.532;13.352;2024-02-21T05:35:38;7.80;99.90
41262;DHT22;29629;52.532;13.352;2024-02-21T05:38:05;7.70;99.90
41262;DHT22;29629;52.532;13.352;2024-02-21T05:40:37;7.80;99.90
41262;DHT22;29629;52.532;13.352;2024-02-21T05:43:04;7.80;99.90
41262;DHT22;29629;52.532;13.352;2024-02-21T05:45:31;7.80;99.90
41262;DHT22;29629;52.532;13.352;2024-02-21T05:47:57;7.80;99.90
41262;DHT22;29629;52.532;13.352;2024-02-21T05:50:26;7.70;99.90
41262;DHT22;29629;52.532;13.352;2024-02-21T05:52:54;7.70;99.90
41262;DHT22;29629;52.532;13.352;2024-02-21T05:55:21;7.80;99.90
41262;DHT22;29629;52.532;13.352;2024-02-21T05:57:48;7.80;99.90
41262;DHT22;29629;52.532;13.352;2024-02-21T06:00:16;7.70;99.90
41262;DHT22;29629;52.532;13.352;2024-02-21T06:02:43;7.70;99.90
41262;DHT22;29629;52.532;13.352;2024-02-21T06:05:10;7.80;99.90
41262;DHT22;29629;52.532;13.352;2024-02-21T06:07:38;7.90;99.90
41262;DHT22;29629;52.532;13.352;2024-02-21T06:10:07;7.80;99.90
41262;DHT22;29629;52.532;13.352;2024-02-21T06:12:34;7.80;99.90
41262;DHT22;29629;52.532;13.352;2024-02-21T06:15:01;7.80;99.90
41262;DHT22;29629;52.532;13.352;2024-02-21T06:17:28;7.90;99.90
41262;DHT22;29629;52.532;13.352;2024-02-21T06:19:55;7.90;99.90
41262;DHT22;29629;52.532;13.352;2024-02-21T06:22:22;7.90;99.90
41262;DHT22;29629;52.532;13.352;2024-02-21T06:24:50;7.90;99.90
41262;DHT22;29629;52.532;13.352;2024-02-21T06:27:20;7.90;99.90
41262;DHT22;29629;52.532;13.352;2024-02-21T06:29:46;7.90;99.90
41262;DHT22;29629;52.532;13.352;2024-02-21T06:32:13;8.00;99.90
41262;DHT22;29629;52.532;13.352;2024-02-21T06:34:40;8.00;99.90
41262;DHT22;29629;52.532;13.352;2024-02-21T06:37:07;8.00;99.90
41262;DHT22;29629;52.532;13.352;2024-02-21T06:39:34;8.00;99.90
41262;DHT22;29629;52.532;13.352;2024-02-21T06:42:04;8.00;99.90
41262;DHT22;29629;52.532;13.352;2024-02-21T06:44:31;8.00;99.90
41262;DHT22;29629;52.532;13.352;2024-02-21T06:47:02;8.00;99.90
41262;DHT22;29629;52.532;13.352;2024-02-21T06:49:29;8.10;99.90
41262;DHT22;29629;52.532;13.352;2024-02-21T06:51:56;8.00;99.90
41262;DHT22;29629;52.532;13.352;2024-02-21T06:54:22;8.10;99.90
41262;DHT22;29629;52.532;13.352;2024-02-21T06:56:49;8.10;99.90
41262;DHT22;29629;52.532;13.352;2024-02-21T06:59:18;8.20;99.90
41262;DHT22;29629;52.532;13.352;2024-02-21T07:01:45;8.20;99.90
41262;DHT22;29629;52.532;13.352;2024-02-21T07:04:13;8.30;99.90
41262;DHT22;29629;52.532;13.352;2024-02-21T07:06:40;8.30;99.90
41262;DHT22;29629;52.532;13.352;2024-02-21T07:09:07;8.30;99.90
41262;DHT22;29629;52.532;13.352;2024-02-21T07:11:34;8.30;99.90
41262;DHT22;29629;52.532;13.352;2024-02-21T07:14:01;8.30;99.90
41262;DHT22;29629;52.532;13.352;2024-02-21T07:16:29;8.30;99.90
41262;DHT22;29629;52.532;13.352;2024-02-21T07:18:58;8.30;99.90
41262;DHT22;29629;52.532;13.352;2024-02-21T07:21:25;8.40;99.90
41262;DHT22;29629;52.532;13.352;2024-02-21T07:23:52;8.40;99.90
41262;DHT22;29629;52.532;13.352;2024-02-21T07:26:19;8.40;99.90
41262;DHT22;29629;52.532;13.352;2024-02-21T07:28:45;8.40;99.90
41262;DHT22;29629;52.532;13.352;2024-02-21T07:31:13;8.50;99.90
41262;DHT22;29629;52.532;13.352;2024-02-21T07:33:41;8.40;99.90
41262;DHT22;29629;52.532;13.352;2024-02-21T07:36:09;8.50;99.90
41262;DHT22;29629;52.532;13.352;2024-02-21T07:38:36;8.50;99.90
41262;DHT22;29629;52.532;13.352;2024-02-21T07:41:03;8.50;99.90
41262;DHT22;29629;52.532;13.352;2024-02-21T07:43:30;8.50;99.90
41262;DHT22;29629;52.532;13.352;2024-02-21T07:45:57;8.60;99.90
41262;DHT22;29629;52.532;13.352;2024-02-21T07:48:24;8.50;99.90
41262;DHT22;29629;52.532;13.352;2024-02-21T07:50:53;8.50;99.90
41262;DHT22;29629;52.532;13.352;2024-02-21T07:53:20;8.50;99.90
41262;DHT22;29629;52.532;13.352;2024-02-21T07:55:47;8.50;99.90
41262;DHT22;29629;52.532;13.352;2024-02-21T07:58:14;8.50;99.90
41262;DHT22;29629;52.532;13.352;2024-02-21T08:00:41;8.50;99.90
41262;DHT22;29629;52.532;13.352;2024-02-21T08:03:08;8.50;99.90
41262;DHT22;29629;52.532;13.352;2024-02-21T08:05:35;8.50;99.90
41262;DHT22;29629;52.532;13.352;2024-02-21T08:08:04;8.60;99.90
41262;DHT22;29629;52.532;13.352;2024-02-21T08:10:31;8.60;99.90
41262;DHT22;29629;52.532;13.352;2024-02-21T08:12:57;8.50;99.90
41262;DHT22;29629;52.532;13.352;2024-02-21T08:15:24;8.60;99.90
41262;DHT22;29629;52.532;13.352;2024-02-21T08:17:55;8.60;99.90
41262;DHT22;29629;52.532;13.352;2024-02-21T08:20:25;8.60;99.90
41262;DHT22;29629;52.532;13.352;2024-02-21T08:22:52;8.60;99.90
41262;DHT22;29629;52.532;13.352;2024-02-21T08:25:20;8.70;99.90
41262;DHT22;29629;52.532;13.352;2024-02-21T08:27:47;8.70;99.90
41262;DHT22;29629;52.532;13.352;2024-02-21T08:30:15;8.70;99.90
41262;DHT22;29629;52.532;13.352;2024-02-21T08:32:42;8.70;99.90
41262;DHT22;29629;52.532;13.352;2024-02-21T08:35:09;8.90;99.90
41262;DHT22;29629;52.532;13.352;2024-02-21T08:37:36;8.90;99.90
41262;DHT22;29629;52.532;13.352;2024-02-21T08:40:03;8.90;99.90
41262;DHT22;29629;52.532;13.352;2024-02-21T08:42:35;9.00;99.90
41262;DHT22;29629;52.532;13.352;2024-02-21T08:45:03;8.90;99.90
41262;DHT22;29629;52.532;13.352;2024-02-21T08:47:30;9.00;99.90
41262;DHT22;29629;52.532;13.352;2024-02-21T08:49:57;9.00;99.90
41262;DHT22;29629;52.532;13.352;2024-02-21T08:52:24;9.20;99.90
41262;DHT22;29629;52.532;13.352;2024-02-21T08:54:50;9.20;99.90
41262;DHT22;29629;52.532;13.352;2024-02-21T08:57:19;9.30;99.90
41262;DHT22;29629;52.532;13.352;2024-02-21T08:59:47;9.30;99.90
41262;DHT22;29629;52.532;13.352;2024-02-21T09:02:14;9.40;99.90
41262;DHT22;29629;52.532;13.352;2024-02-21T09:04:42;9.40;99.90
41262;DHT22;29629;52.532;13.352;2024-02-21T09:07:10;9.50;99.90
41262;DHT22;29629;52.532;13.352;2024-02-21T09:09:37;9.50;99.90
41262;DHT22;29629;52.532;13.352;2024-02-21T09:12:06;9.50;99.90
41262;DHT22;29629;52.532;13.352;2024-02-21T09:14:33;9.40;99.90
41262;DHT22;29629;52.532;13.352;2024-02-21T09:17:02;9.40;99.90
41262;DHT22;29629;52.532;13.352;2024-02-21T09:19:29;9.50;99.90
41262;DHT22;29629;52.532;13.352;2024-02-21T09:21:56;9.50;99.90
41262;DHT22;29629;52.532;13.352;2024-02-21T09:24:23;9.60;99.90
41262;DHT22;29629;52.532;13.352;2024-02-21T09:26:50;9.70;99.90
41262;DHT22;29629;52.532;13.352;2024-02-21T09:29:17;9.70;99.90
41262;DHT22;29629;52.532;13.352;2024-02-21T09:31:43;9.70;99.90
41262;DHT22;29629;52.532;13.352;2024-02-21T09:34:12;9.80;99.90
41262;DHT22;29629;52.532;13.352;2024-02-21T09:36:39;9.70;99.90
41262;DHT22;29629;52.532;13.352;2024-02-21T09:39:06;9.70;99.90
41262;DHT22;29629;52.532;13.352;2024-02-21T09:41:36;9.80;99.90
41262;DHT22;29629;52.532;13.352;2024-02-21T09:44:06;9.90;99.90
41262;DHT22;29629;52.532;13.352;2024-02-21T09:46:39;9.90;99.90
41262;DHT22;29629;52.532;13.352;2024-02-21T09:49:16;9.90;99.90
41262;DHT22;29629;52.532;13.352;2024-02-21T09:51:47;10.10;99.90
41262;DHT22;29629;52.532;13.352;2024-02-21T09:54:16;10.10;99.90
41262;DHT22;29629;52.532;13.352;2024-02-21T09:56:45;10.10;99.90
41262;DHT22;29629;52.532;13.352;2024-02-21T09:59:13;10.20;99.90
41262;DHT22;29629;52.532;13.352;2024-02-21T10:01:41;10.20;99.90
41262;DHT22;29629;52.532;13.352;2024-02-21T10:04:08;10.20;99.90
41262;DHT22;29629;52.532;13.352;2024-02-21T10:06:36;10.30;99.90
41262;DHT22;29629;52.532;13.352;2024-02-21T10:09:06;10.30;99.90
41262;DHT22;29629;52.532;13.352;2024-02-21T10:11:33;10.30;99.90
41262;DHT22;29629;52.532;13.352;2024-02-21T10:14:05;10.30;99.90
41262;DHT22;29629;52.532;13.352;2024-02-21T10:16:32;10.40;99.90
41262;DHT22;29629;52.532;13.352;2024-02-21T10:19:00;10.40;99.90
41262;DHT22;29629;52.532;13.352;2024-02-21T10:21:27;10.50;99.90
41262;DHT22;29629;52.532;13.352;2024-02-21T10:23:56;10.40;99.90
41262;DHT22;29629;52.532;13.352;2024-02-21T10:26:23;10.40;99.90
41262;DHT22;29629;52.532;13.352;2024-02-21T10:28:50;10.40;99.90
41262;DHT22;29629;52.532;13.352;2024-02-21T10:31:24;10.50;99.90
41262;DHT22;29629;52.532;13.352;2024-02-21T10:33:55;10.50;99.90
41262;DHT22;29629;52.532;13.352;2024-02-21T10:36:23;10.60;99.90
41262;DHT22;29629;52.532;13.352;2024-02-21T10:38:51;10.50;99.90
41262;DHT22;29629;52.532;13.352;2024-02-21T10:41:21;10.60;99.90
41262;DHT22;29629;52.532;13.352;2024-02-21T10:43:50;10.60;99.90
41262;DHT22;29629;52.532;13.352;2024-02-21T10:46:19;10.70;99.90
41262;DHT22;29629;52.532;13.352;2024-02-21T10:48:48;10.60;99.90
41262;DHT22;29629;52.532;13.352;2024-02-21T10:51:16;10.50;99.90
41262;DHT22;29629;52.532;13.352;2024-02-21T10:53:50;10.50;99.90
41262;DHT22;29629;52.532;13.352;2024-02-21T10:56:28;10.40;99.90
41262;DHT22;29629;52.532;13.352;2024-02-21T10:58:58;10.40;99.90
41262;DHT22;29629;52.532;13.352;2024-02-21T11:01:25;10.40;99.90
41262;DHT22;29629;52.532;13.352;2024-02-21T11:03:55;10.30;99.90
41262;DHT22;29629;52.532;13.352;2024-02-21T11:06:25;10.30;99.90
41262;DHT22;29629;52.532;13.352;2024-02-21T11:09:01;10.30;99.90
41262;DHT22;29629;52.532;13.352;2024-02-21T11:11:33;10.40;99.90
41262;DHT22;29629;52.532;13.352;2024-02-21T11:14:07;10.80;99.90
41262;DHT22;29629;52.532;13.352;2024-02-21T11:16:36;11.20;99.90
41262;DHT22;29629;52.532;13.352;2024-02-21T11:19:06;11.30;99.90
41262;DHT22;29629;52.532;13.352;2024-02-21T11:21:33;11.80;99.90
41262;DHT22;29629;52.532;13.352;2024-02-21T11:24:01;12.20;99.90
41262;DHT22;29629;52.532;13.352;2024-02-21T11:26:31;12.50;99.90
41262;DHT22;29629;52.532;13.352;2024-02-21T11:28:59;13.00;99.90
41262;DHT22;29629;52.532;13.352;2024-02-21T11:31:26;12.90;99.90
41262;DHT22;29629;52.532;13.352;2024-02-21T11:33:54;12.90;99.90
41262;DHT22;29629;52.532;13.352;2024-02-21T11:36:25;12.90;99.90
41262;DHT22;29629;52.532;13.352;2024-02-21T11:38:52;13.00;99.90
41262;DHT22;29629;52.532;13.352;2024-02-21T11:41:19;12.50;99.90
41262;DHT22;29629;52.532;13.352;2024-02-21T11:43:49;12.50;99.90
41262;DHT22;29629;52.532;13.352;2024-02-21T11:46:16;12.70;99.90
41262;DHT22;29629;52.532;13.352;2024-02-21T11:48:44;13.50;99.90
41262;DHT22;29629;52.532;13.352;2024-02-21T11:51:21;12.90;99.90
41262;DHT22;29629;52.532;13.352;2024-02-21T11:53:50;12.40;99.90
41262;DHT22;29629;52.532;13.352;2024-02-21T11:56:18;12.20;99.90
41262;DHT22;29629;52.532;13.352;2024-02-21T11:58:46;12.60;99.90
41262;DHT22;29629;52.532;13.352;2024-02-21T12:01:14;13.10;99.90
41262;DHT22;29629;52.532;13.352;2024-02-21T12:03:42;13.30;99.90
41262;DHT22;29629;52.532;13.352;2024-02-21T12:06:16;13.50;99.90
41262;DHT22;29629;52.532;13.352;2024-02-21T12:08:45;13.30;99.90
41262;DHT22;29629;52.532;13.352;2024-02-21T12:11:19;13.10;99.90
41262;DHT22;29629;52.532;13.352;2024-02-21T12:13:47;13.10;99.90
41262;DHT22;29629;52.532;13.352;2024-02-21T12:16:19;12.90;99.90
41262;DHT22;29629;52.532;13.352;2024-02-21T12:18:46;12.90;99.90
41262;DHT22;29629;52.532;13.352;2024-02-21T12:21:13;13.10;99.90
41262;DHT22;29629;52.532;13.352;2024-02-21T12:23:40;13.30;99.90
41262;DHT22;29629;52.532;13.352;2024-02-21T12:26:07;13.40;99.90
41262;DHT22;29629;52.532;13.352;2024-02-21T12:28:34;13.40;99.90
41262;DHT22;29629;52.532;13.352;2024-02-21T12:31:02;13.30;99.90
41262;DHT22;29629;52.532;13.352;2024-02-21T12:33:31;13.10;99.90
41262;DHT22;29629;52.532;13.352;2024-02-21T12:35:58;13.60;99.90
41262;DHT22;29629;52.532;13.352;2024-02-21T12:38:25;14.00;99.90
41262;DHT22;29629;52.532;13.352;2024-02-21T12:40:52;14.20;99.90
41262;DHT22;29629;52.532;13.352;2024-02-21T12:43:19;14.40;99.90
41262;DHT22;29629;52.532;13.352;2024-02-21T12:45:48;13.50;99.90
41262;DHT22;29629;52.532;13.352;2024-02-21T12:48:15;13.90;99.90
41262;DHT22;29629;52.532;13.352;2024-02-21T12:50:49;14.30;99.90
41262;DHT22;29629;52.532;13.352;2024-02-21T12:53:16;13.80;99.90
41262;DHT22;29629;52.532;13.352;2024-02-21T12:55:44;13.80;99.90
41262;DHT22;29629;52.532;13.352;2024-02-21T12:58:11;13.80;99.90
41262;DHT22;29629;52.532;13.352;2024-02-21T13:00:39;13.20;99.90
41262;DHT22;29629;52.532;13.352;2024-02-21T13:03:06;13.10;99.90
41262;DHT22;29629;52.532;13.352;2024-02-21T13:05:33;13.10;99.90
41262;DHT22;29629;52.532;13.352;2024-02-21T13:08:02;13.00;99.90
41262;DHT22;29629;52.532;13.352;2024-02-21T13:10:29;12.80;99.90
41262;DHT22;29629;52.532;13.352;2024-02-21T13:12:56;12.60;99.90
41262;DHT22;29629;52.532;13.352;2024-02-21T13:15:23;12.50;99.90
41262;DHT22;29629;52.532;13.352;2024-02-21T13:17:50;12.50;99.90
41262;DHT22;29629;52.532;13.352;2024-02-21T13:20:17;12.30;99.90
41262;DHT22;29629;52.532;13.352;2024-02-21T13:22:44;12.40;99.90
41262;DHT22;29629;52.532;13.352;2024-02-21T13:25:12;12.70;99.90
41262;DHT22;29629;52.532;13.352;2024-02-21T13:27:40;12.90;99.90
41262;DHT22;29629;52.532;13.352;2024-02-21T13:30:08;12.80;99.90
41262;DHT22;29629;52.532;13.352;2024-02-21T13:32:36;12.70;99.90
41262;DHT22;29629;52.532;13.352;2024-02-21T13:35:03;12.40;99.90
41262;DHT22;29629;52.532;13.352;2024-02-21T13:37:32;12.50;99.90
41262;DHT22;29629;52.532;13.352;2024-02-21T13:39:59;12.20;99.90
41262;DHT22;29629;52.532;13.352;2024-02-21T13:42:27;12.00;99.90
41262;DHT22;29629;52.532;13.352;2024-02-21T13:44:54;12.00;99.90
41262;DHT22;29629;52.532;13.352;2024-02-21T13:47:21;11.80;99.90
41262;DHT22;29629;52.532;13.352;2024-02-21T13:49:48;11.80;99.90
41262;DHT22;29629;52.532;13.352;2024-02-21T13:52:15;11.80;99.90
41262;DHT22;29629;52.532;13.352;2024-02-21T13:54:42;11.70;99.90
41262;DHT22;29629;52.532;13.352;2024-02-21T13:57:09;11.80;99.90
41262;DHT22;29629;52.532;13.352;2024-02-21T13:59:38;11.70;99.90
41262;DHT22;29629;52.532;13.352;2024-02-21T14:02:05;11.80;99.90
41262;DHT22;29629;52.532;13.352;2024-02-21T14:04:33;11.90;99.90
41262;DHT22;29629;52.532;13.352;2024-02-21T14:07:00;11.90;99.90
41262;DHT22;29629;52.532;13.352;2024-02-21T14:09:27;11.90;99.90
41262;DHT22;29629;52.532;13.352;2024-02-21T14:11:55;12.00;99.90
41262;DHT22;29629;52.532;13.352;2024-02-21T14:14:22;12.10;99.90
41262;DHT22;29629;52.532;13.352;2024-02-21T14:16:50;12.00;99.90
41262;DHT22;29629;52.532;13.352;2024-02-21T14:19:17;12.00;99.90
41262;DHT22;29629;52.532;13.352;2024-02-21T14:21:44;12.00;99.90
41262;DHT22;29629;52.532;13.352;2024-02-21T14:24:11;12.00;99.90
41262;DHT22;29629;52.532;13.352;2024-02-21T14:26:38;12.00;99.90
41262;DHT22;29629;52.532;13.352;2024-02-21T14:29:06;12.00;99.90
41262;DHT22;29629;52.532;13.352;2024-02-21T14:31:33;12.00;99.90
41262;DHT22;29629;52.532;13.352;2024-02-21T14:34:02;11.90;99.90
41262;DHT22;29629;52.532;13.352;2024-02-21T14:36:29;11.90;99.90
41262;DHT22;29629;52.532;13.352;2024-02-21T14:38:56;11.90;99.90
41262;DHT22;29629;52.532;13.352;2024-02-21T14:41:23;11.90;99.90
41262;DHT22;29629;52.532;13.352;2024-02-21T14:43:50;11.90;99.90
41262;DHT22;29629;52.532;13.352;2024-02-21T14:46:18;11.90;99.90
41262;DHT22;29629;52.532;13.352;2024-02-21T14:48:45;11.90;99.90
41262;DHT22;29629;52.532;13.352;2024-02-21T14:51:14;12.00;99.90
41262;DHT22;29629;52.532;13.352;2024-02-21T14:53:41;11.90;99.90
41262;DHT22;29629;52.532;13.352;2024-02-21T14:56:12;11.80;99.90
41262;DHT22;29629;52.532;13.352;2024-02-21T14:58:41;11.70;99.90
41262;DHT22;29629;52.532;13.352;2024-02-21T15:01:08;11.70;99.90
41262;DHT22;29629;52.532;13.352;2024-02-21T15:03:35;11.70;99.90
41262;DHT22;29629;52.532;13.352;2024-02-21T15:06:02;11.70;99.90
41262;DHT22;29629;52.532;13.352;2024-02-21T15:08:31;11.70;99.90
41262;DHT22;29629;52.532;13.352;2024-02-21T15:10:58;11.70;99.90
41262;DHT22;29629;52.532;13.352;2024-02-21T15:13:25;11.80;99.90
41262;DHT22;29629;52.532;13.352;2024-02-21T15:15:52;11.80;99.90
41262;DHT22;29629;52.532;13.352;2024-02-21T15:18:20;11.70;99.90
41262;DHT22;29629;52.532;13.352;2024-02-21T15:20:46;11.70;99.90
41262;DHT22;29629;52.532;13.352;2024-02-21T15:23:13;11.60;99.90
41262;DHT22;29629;52.532;13.352;2024-02-21T15:25:42;11.60;99.90
41262;DHT22;29629;52.532;13.352;2024-02-21T15:28:09;11.50;99.90